sensor_id;sensor_type;location;lat;lon;timestamp;pressure;altitude;pressure_sealevel;temperature;humidity
51321;BME280;38732;49.556;6.286;2022-08-19T00:02:05;99348.78;;;22.74;60.90
51321;BME280;38732;49.556;6.286;2022-08-19T00:04:35;99346.16;;;22.74;60.69
51321;BME280;38732;49.556;6.286;2022-08-19T00:07:05;99359.09;;;22.79;60.65
51321;BME280;38732;49.556;6.286;2022-08-19T00:09:34;99362.03;;;22.73;60.96
51321;BME280;38732;49.556;6.286;2022-08-19T00:12:03;99367.28;;;22.73;60.72
51321;BME280;38732;49.556;6.286;2022-08-19T00:14:31;99360.97;;;22.59;61.54
51321;BME280;38732;49.556;6.286;2022-08-19T00:17:00;99357.38;;;22.60;61.35
51321;BME280;38732;49.556;6.286;2022-08-19T00:19:29;99354.31;;;22.52;61.60
51321;BME280;38732;49.556;6.286;2022-08-19T00:21:57;99346.47;;;22.68;60.74
51321;BME280;38732;49.556;6.286;2022-08-19T00:24:25;99349.34;;;22.46;61.33
51321;BME280;38732;49.556;6.286;2022-08-19T00:26:55;99351.91;;;22.30;62.35
51321;BME280;38732;49.556;6.286;2022-08-19T00:29:24;99349.50;;;22.43;61.62
51321;BME280;38732;49.556;6.286;2022-08-19T00:31:53;99342.38;;;22.28;62.66
51321;BME280;38732;49.556;6.286;2022-08-19T00:34:22;99348.19;;;22.34;62.23
51321;BME280;38732;49.556;6.286;2022-08-19T00:36:50;99344.13;;;22.10;63.10
51321;BME280;38732;49.556;6.286;2022-08-19T00:39:18;99339.41;;;21.99;63.45
51321;BME280;38732;49.556;6.286;2022-08-19T00:41:48;99342.94;;;21.98;63.45
51321;BME280;38732;49.556;6.286;2022-08-19T00:44:22;99341.38;;;21.94;63.94
51321;BME280;38732;49.556;6.286;2022-08-19T00:46:51;99345.75;;;22.12;63.46
51321;BME280;38732;49.556;6.286;2022-08-19T00:52:30;99332.34;;;21.82;64.62
51321;BME280;38732;49.556;6.286;2022-08-19T00:55:00;99328.50;;;21.70;65.19
51321;BME280;38732;49.556;6.286;2022-08-19T00:57:37;99325.09;;;21.68;64.93
51321;BME280;38732;49.556;6.286;2022-08-19T01:00:09;99319.53;;;21.57;65.91
51321;BME280;38732;49.556;6.286;2022-08-19T01:02:40;99329.03;;;21.60;65.76
51321;BME280;38732;49.556;6.286;2022-08-19T01:05:12;99333.72;;;21.72;65.28
51321;BME280;38732;49.556;6.286;2022-08-19T01:07:41;99336.81;;;21.80;65.23
51321;BME280;38732;49.556;6.286;2022-08-19T01:10:16;99340.75;;;21.52;66.40
51321;BME280;38732;49.556;6.286;2022-08-19T01:12:47;99338.50;;;21.45;66.67
51321;BME280;38732;49.556;6.286;2022-08-19T01:15:18;99331.28;;;21.67;66.27
51321;BME280;38732;49.556;6.286;2022-08-19T01:17:48;99326.56;;;21.74;65.38
51321;BME280;38732;49.556;6.286;2022-08-19T01:20:22;99317.78;;;21.56;66.28
51321;BME280;38732;49.556;6.286;2022-08-19T01:22:54;99321.56;;;21.50;66.73
51321;BME280;38732;49.556;6.286;2022-08-19T01:25:30;99315.38;;;21.51;67.03
51321;BME280;38732;49.556;6.286;2022-08-19T01:27:59;99323.25;;;21.51;67.26
51321;BME280;38732;49.556;6.286;2022-08-19T01:30:31;99319.06;;;21.66;66.25
51321;BME280;38732;49.556;6.286;2022-08-19T01:33:01;99315.53;;;21.67;65.97
51321;BME280;38732;49.556;6.286;2022-08-19T01:35:30;99318.00;;;21.70;65.79
51321;BME280;38732;49.556;6.286;2022-08-19T01:38:01;99317.22;;;21.68;65.68
51321;BME280;38732;49.556;6.286;2022-08-19T01:40:31;99316.09;;;21.55;66.50
51321;BME280;38732;49.556;6.286;2022-08-19T01:43:01;99313.38;;;21.39;66.77
51321;BME280;38732;49.556;6.286;2022-08-19T01:45:32;99323.19;;;21.53;66.09
51321;BME280;38732;49.556;6.286;2022-08-19T01:48:02;99315.19;;;21.37;66.06
51321;BME280;38732;49.556;6.286;2022-08-19T01:50:32;99322.78;;;21.43;66.92
51321;BME280;38732;49.556;6.286;2022-08-19T01:53:04;99329.22;;;21.36;66.94
51321;BME280;38732;49.556;6.286;2022-08-19T01:55:35;99331.28;;;21.29;67.58
51321;BME280;38732;49.556;6.286;2022-08-19T01:58:05;99329.97;;;21.40;67.64
51321;BME280;38732;49.556;6.286;2022-08-19T02:00:34;99321.94;;;21.43;66.98
51321;BME280;38732;49.556;6.286;2022-08-19T02:03:02;99323.69;;;21.23;67.87
51321;BME280;38732;49.556;6.286;2022-08-19T02:05:30;99327.44;;;21.37;67.41
51321;BME280;38732;49.556;6.286;2022-08-19T02:07:58;99315.75;;;21.25;67.54
51321;BME280;38732;49.556;6.286;2022-08-19T02:10:27;99313.53;;;21.16;67.85
51321;BME280;38732;49.556;6.286;2022-08-19T02:12:55;99324.41;;;21.27;67.98
51321;BME280;38732;49.556;6.286;2022-08-19T02:15:23;99321.16;;;21.22;67.94
51321;BME280;38732;49.556;6.286;2022-08-19T02:17:52;99330.97;;;20.98;68.86
51321;BME280;38732;49.556;6.286;2022-08-19T02:20:20;99335.00;;;20.86;69.36
51321;BME280;38732;49.556;6.286;2022-08-19T02:22:48;99341.63;;;20.95;69.38
51321;BME280;38732;49.556;6.286;2022-08-19T02:25:16;99338.47;;;20.86;69.94
51321;BME280;38732;49.556;6.286;2022-08-19T02:27:45;99337.97;;;20.78;70.22
51321;BME280;38732;49.556;6.286;2022-08-19T02:30:16;99338.09;;;20.75;70.69
51321;BME280;38732;49.556;6.286;2022-08-19T02:32:44;99338.41;;;20.88;69.74
51321;BME280;38732;49.556;6.286;2022-08-19T02:35:13;99336.59;;;20.70;70.96
51321;BME280;38732;49.556;6.286;2022-08-19T02:37:42;99346.69;;;20.58;71.23
51321;BME280;38732;49.556;6.286;2022-08-19T02:40:11;99344.16;;;20.57;71.07
51321;BME280;38732;49.556;6.286;2022-08-19T02:42:39;99339.13;;;20.71;70.44
51321;BME280;38732;49.556;6.286;2022-08-19T02:45:08;99351.28;;;20.74;70.84
51321;BME280;38732;49.556;6.286;2022-08-19T02:47:36;99353.00;;;20.75;70.96
51321;BME280;38732;49.556;6.286;2022-08-19T02:50:05;99357.66;;;20.68;71.22
51321;BME280;38732;49.556;6.286;2022-08-19T02:52:34;99364.22;;;20.58;71.15
51321;BME280;38732;49.556;6.286;2022-08-19T02:55:03;99358.47;;;20.48;71.38
51321;BME280;38732;49.556;6.286;2022-08-19T02:57:31;99364.34;;;20.55;71.18
51321;BME280;38732;49.556;6.286;2022-08-19T03:00:00;99366.66;;;20.62;71.08
51321;BME280;38732;49.556;6.286;2022-08-19T03:02:28;99366.06;;;20.54;71.50
51321;BME280;38732;49.556;6.286;2022-08-19T03:04:56;99363.75;;;20.46;72.15
51321;BME280;38732;49.556;6.286;2022-08-19T03:07:24;99359.13;;;20.53;72.32
51321;BME280;38732;49.556;6.286;2022-08-19T03:09:53;99359.22;;;20.72;71.39
51321;BME280;38732;49.556;6.286;2022-08-19T03:12:21;99362.28;;;20.61;72.20
51321;BME280;38732;49.556;6.286;2022-08-19T03:14:49;99347.81;;;20.73;71.92
51321;BME280;38732;49.556;6.286;2022-08-19T03:17:18;99345.56;;;20.84;71.05
51321;BME280;38732;49.556;6.286;2022-08-19T03:19:46;99352.19;;;20.93;70.79
51321;BME280;38732;49.556;6.286;2022-08-19T03:22:14;99346.97;;;20.92;70.84
51321;BME280;38732;49.556;6.286;2022-08-19T03:24:43;99352.81;;;20.79;70.73
51321;BME280;38732;49.556;6.286;2022-08-19T03:27:11;99353.78;;;20.77;70.16
51321;BME280;38732;49.556;6.286;2022-08-19T03:29:39;99351.81;;;20.82;70.50
51321;BME280;38732;49.556;6.286;2022-08-19T03:32:07;99355.81;;;20.70;71.61
51321;BME280;38732;49.556;6.286;2022-08-19T03:34:37;99361.31;;;20.64;71.97
51321;BME280;38732;49.556;6.286;2022-08-19T03:37:10;99351.59;;;20.66;71.24
51321;BME280;38732;49.556;6.286;2022-08-19T03:39:40;99358.50;;;20.68;71.29
51321;BME280;38732;49.556;6.286;2022-08-19T03:42:09;99366.97;;;20.55;71.64
51321;BME280;38732;49.556;6.286;2022-08-19T03:44:37;99367.53;;;20.61;72.05
51321;BME280;38732;49.556;6.286;2022-08-19T03:47:06;99371.09;;;20.60;72.05
51321;BME280;38732;49.556;6.286;2022-08-19T03:49:34;99374.31;;;20.67;71.88
51321;BME280;38732;49.556;6.286;2022-08-19T03:52:04;99368.78;;;20.73;71.48
51321;BME280;38732;49.556;6.286;2022-08-19T03:54:32;99377.19;;;20.61;71.60
51321;BME280;38732;49.556;6.286;2022-08-19T03:57:00;99375.06;;;20.48;72.86
51321;BME280;38732;49.556;6.286;2022-08-19T03:59:32;99371.63;;;20.46;72.77
51321;BME280;38732;49.556;6.286;2022-08-19T04:02:06;99371.84;;;20.42;73.08
51321;BME280;38732;49.556;6.286;2022-08-19T04:04:37;99367.75;;;20.57;72.23
51321;BME280;38732;49.556;6.286;2022-08-19T04:07:06;99364.50;;;20.50;72.39
51321;BME280;38732;49.556;6.286;2022-08-19T04:09:35;99367.53;;;20.61;72.23
51321;BME280;38732;49.556;6.286;2022-08-19T04:12:04;99372.50;;;20.47;72.77
51321;BME280;38732;49.556;6.286;2022-08-19T04:14:34;99373.94;;;20.54;73.09
51321;BME280;38732;49.556;6.286;2022-08-19T04:17:03;99383.50;;;20.57;73.47
51321;BME280;38732;49.556;6.286;2022-08-19T04:19:33;99383.72;;;20.51;73.47
51321;BME280;38732;49.556;6.286;2022-08-19T04:22:03;99390.59;;;20.53;73.02
51321;BME280;38732;49.556;6.286;2022-08-19T04:24:31;99385.88;;;20.41;73.37
51321;BME280;38732;49.556;6.286;2022-08-19T04:27:01;99378.84;;;20.41;73.56
51321;BME280;38732;49.556;6.286;2022-08-19T04:29:29;99378.53;;;20.49;72.53
51321;BME280;38732;49.556;6.286;2022-08-19T04:31:58;99377.69;;;20.48;72.54
51321;BME280;38732;49.556;6.286;2022-08-19T04:34:28;99374.25;;;20.46;72.57
51321;BME280;38732;49.556;6.286;2022-08-19T04:36:58;99376.88;;;20.46;72.69
51321;BME280;38732;49.556;6.286;2022-08-19T04:39:29;99383.09;;;20.44;72.97
51321;BME280;38732;49.556;6.286;2022-08-19T04:41:57;99386.84;;;20.60;72.21
51321;BME280;38732;49.556;6.286;2022-08-19T04:44:26;99390.16;;;20.64;72.09
51321;BME280;38732;49.556;6.286;2022-08-19T04:46:54;99387.50;;;20.65;71.96
51321;BME280;38732;49.556;6.286;2022-08-19T04:49:23;99385.81;;;20.42;72.27
51321;BME280;38732;49.556;6.286;2022-08-19T04:51:53;99392.78;;;20.21;72.75
51321;BME280;38732;49.556;6.286;2022-08-19T04:54:24;99393.84;;;20.17;74.21
51321;BME280;38732;49.556;6.286;2022-08-19T04:56:53;99393.03;;;20.37;72.72
51321;BME280;38732;49.556;6.286;2022-08-19T04:59:21;99391.25;;;20.38;74.15
51321;BME280;38732;49.556;6.286;2022-08-19T05:01:50;99399.44;;;20.30;73.44
51321;BME280;38732;49.556;6.286;2022-08-19T05:04:19;99396.56;;;20.14;74.77
51321;BME280;38732;49.556;6.286;2022-08-19T05:06:48;99400.09;;;20.13;75.45
51321;BME280;38732;49.556;6.286;2022-08-19T05:09:17;99403.84;;;20.30;75.12
51321;BME280;38732;49.556;6.286;2022-08-19T05:11:45;99408.25;;;20.50;73.32
51321;BME280;38732;49.556;6.286;2022-08-19T05:14:13;99403.69;;;20.33;75.30
51321;BME280;38732;49.556;6.286;2022-08-19T05:16:42;99403.50;;;20.37;75.04
51321;BME280;38732;49.556;6.286;2022-08-19T05:19:10;99411.56;;;20.55;74.16
51321;BME280;38732;49.556;6.286;2022-08-19T05:21:40;99405.41;;;20.54;75.01
51321;BME280;38732;49.556;6.286;2022-08-19T05:24:09;99405.25;;;20.59;74.64
51321;BME280;38732;49.556;6.286;2022-08-19T05:26:39;99412.88;;;20.65;74.49
51321;BME280;38732;49.556;6.286;2022-08-19T05:29:08;99402.56;;;20.81;74.47
51321;BME280;38732;49.556;6.286;2022-08-19T05:31:37;99396.78;;;20.93;73.44
51321;BME280;38732;49.556;6.286;2022-08-19T05:34:06;99398.19;;;21.02;72.75
51321;BME280;38732;49.556;6.286;2022-08-19T05:36:37;99395.06;;;21.13;71.95
51321;BME280;38732;49.556;6.286;2022-08-19T05:39:07;99399.34;;;21.15;72.28
51321;BME280;38732;49.556;6.286;2022-08-19T05:41:41;99400.56;;;21.06;73.03
51321;BME280;38732;49.556;6.286;2022-08-19T05:44:09;99407.72;;;21.23;72.52
51321;BME280;38732;49.556;6.286;2022-08-19T05:46:38;99405.94;;;21.24;72.68
51321;BME280;38732;49.556;6.286;2022-08-19T05:49:07;99394.88;;;21.36;72.47
51321;BME280;38732;49.556;6.286;2022-08-19T05:51:36;99404.84;;;21.29;72.66
51321;BME280;38732;49.556;6.286;2022-08-19T05:54:06;99408.31;;;21.30;73.42
51321;BME280;38732;49.556;6.286;2022-08-19T05:56:34;99410.41;;;21.42;72.11
51321;BME280;38732;49.556;6.286;2022-08-19T05:59:04;99405.84;;;21.46;71.60
51321;BME280;38732;49.556;6.286;2022-08-19T06:01:33;99406.63;;;21.48;71.29
51321;BME280;38732;49.556;6.286;2022-08-19T06:04:02;99408.69;;;21.41;71.90
51321;BME280;38732;49.556;6.286;2022-08-19T06:06:30;99418.44;;;21.39;71.96
51321;BME280;38732;49.556;6.286;2022-08-19T06:08:58;99426.34;;;21.38;72.10
51321;BME280;38732;49.556;6.286;2022-08-19T06:14:05;99427.59;;;21.49;71.27
51321;BME280;38732;49.556;6.286;2022-08-19T06:16:35;99435.59;;;21.46;71.89
51321;BME280;38732;49.556;6.286;2022-08-19T06:19:05;99433.41;;;21.56;71.98
51321;BME280;38732;49.556;6.286;2022-08-19T06:21:35;99429.72;;;21.60;71.38
51321;BME280;38732;49.556;6.286;2022-08-19T06:24:09;99435.63;;;21.65;70.90
51321;BME280;38732;49.556;6.286;2022-08-19T06:26:41;99442.13;;;21.57;71.28
51321;BME280;38732;49.556;6.286;2022-08-19T06:29:12;99441.19;;;21.59;71.56
51321;BME280;38732;49.556;6.286;2022-08-19T06:31:45;99439.94;;;21.66;70.92
51321;BME280;38732;49.556;6.286;2022-08-19T06:34:14;99442.94;;;21.78;71.09
51321;BME280;38732;49.556;6.286;2022-08-19T06:36:45;99449.69;;;21.83;70.89
51321;BME280;38732;49.556;6.286;2022-08-19T06:39:17;99458.78;;;21.95;71.13
51321;BME280;38732;49.556;6.286;2022-08-19T06:41:49;99456.44;;;22.08;71.96
51321;BME280;38732;49.556;6.286;2022-08-19T06:44:20;99452.25;;;22.23;71.25
51321;BME280;38732;49.556;6.286;2022-08-19T06:46:49;99452.44;;;22.37;70.31
51321;BME280;38732;49.556;6.286;2022-08-19T06:49:17;99451.56;;;22.54;69.89
51321;BME280;38732;49.556;6.286;2022-08-19T06:51:47;99464.63;;;22.74;69.22
51321;BME280;38732;49.556;6.286;2022-08-19T06:54:17;99466.31;;;22.93;69.10
51321;BME280;38732;49.556;6.286;2022-08-19T06:56:46;99473.63;;;23.05;68.17
51321;BME280;38732;49.556;6.286;2022-08-19T06:59:21;99470.28;;;23.19;67.28
51321;BME280;38732;49.556;6.286;2022-08-19T07:01:52;99477.38;;;23.34;65.88
51321;BME280;38732;49.556;6.286;2022-08-19T07:04:25;99475.19;;;23.42;65.20
51321;BME280;38732;49.556;6.286;2022-08-19T07:07:09;99484.38;;;23.51;65.55
51321;BME280;38732;49.556;6.286;2022-08-19T07:09:40;99480.84;;;23.52;64.05
51321;BME280;38732;49.556;6.286;2022-08-19T07:12:11;99482.47;;;23.71;64.34
51321;BME280;38732;49.556;6.286;2022-08-19T07:14:41;99486.69;;;23.75;64.25
51321;BME280;38732;49.556;6.286;2022-08-19T07:17:11;99487.72;;;23.88;62.72
51321;BME280;38732;49.556;6.286;2022-08-19T07:19:40;99486.13;;;24.01;62.93
51321;BME280;38732;49.556;6.286;2022-08-19T07:22:09;99482.53;;;24.18;61.20
51321;BME280;38732;49.556;6.286;2022-08-19T07:24:38;99477.84;;;24.23;61.04
51321;BME280;38732;49.556;6.286;2022-08-19T07:27:07;99479.19;;;24.30;61.30
51321;BME280;38732;49.556;6.286;2022-08-19T07:29:36;99485.25;;;24.32;60.49
51321;BME280;38732;49.556;6.286;2022-08-19T07:32:05;99477.44;;;24.47;60.47
51321;BME280;38732;49.556;6.286;2022-08-19T07:34:33;99476.88;;;24.56;61.77
51321;BME280;38732;49.556;6.286;2022-08-19T07:37:05;99482.34;;;24.69;61.93
51321;BME280;38732;49.556;6.286;2022-08-19T07:39:35;99478.22;;;24.79;60.71
51321;BME280;38732;49.556;6.286;2022-08-19T07:42:08;99487.78;;;24.96;60.18
51321;BME280;38732;49.556;6.286;2022-08-19T07:44:37;99485.09;;;25.12;60.83
51321;BME280;38732;49.556;6.286;2022-08-19T07:47:06;99487.22;;;25.21;58.47
51321;BME280;38732;49.556;6.286;2022-08-19T07:49:34;99485.88;;;25.28;58.48
51321;BME280;38732;49.556;6.286;2022-08-19T07:52:07;99489.28;;;25.30;58.12
51321;BME280;38732;49.556;6.286;2022-08-19T07:54:37;99489.94;;;25.48;58.30
51321;BME280;38732;49.556;6.286;2022-08-19T07:57:07;99479.78;;;25.56;57.71
51321;BME280;38732;49.556;6.286;2022-08-19T07:59:36;99477.59;;;25.63;57.97
51321;BME280;38732;49.556;6.286;2022-08-19T08:02:04;99481.81;;;25.80;57.49
51321;BME280;38732;49.556;6.286;2022-08-19T08:04:33;99477.81;;;25.89;57.37
51321;BME280;38732;49.556;6.286;2022-08-19T08:07:01;99474.19;;;26.04;56.52
51321;BME280;38732;49.556;6.286;2022-08-19T08:09:33;99473.47;;;26.15;56.95
51321;BME280;38732;49.556;6.286;2022-08-19T08:12:09;99471.97;;;26.11;55.48
51321;BME280;38732;49.556;6.286;2022-08-19T08:14:51;99476.19;;;25.86;55.68
51321;BME280;38732;49.556;6.286;2022-08-19T08:17:24;99479.00;;;25.97;56.46
51321;BME280;38732;49.556;6.286;2022-08-19T08:19:53;99470.53;;;26.19;54.35
51321;BME280;38732;49.556;6.286;2022-08-19T08:22:23;99474.69;;;26.23;54.61
51321;BME280;38732;49.556;6.286;2022-08-19T08:24:52;99462.22;;;26.38;53.44
51321;BME280;38732;49.556;6.286;2022-08-19T08:27:20;99467.78;;;26.48;53.54
51321;BME280;38732;49.556;6.286;2022-08-19T08:29:48;99462.31;;;26.51;53.28
51321;BME280;38732;49.556;6.286;2022-08-19T08:32:16;99467.66;;;26.64;52.46
51321;BME280;38732;49.556;6.286;2022-08-19T08:34:45;99472.22;;;26.75;53.03
51321;BME280;38732;49.556;6.286;2022-08-19T08:37:13;99465.81;;;26.92;53.55
51321;BME280;38732;49.556;6.286;2022-08-19T08:39:42;99464.22;;;27.02;52.85
51321;BME280;38732;49.556;6.286;2022-08-19T08:42:12;99468.72;;;27.27;50.55
51321;BME280;38732;49.556;6.286;2022-08-19T08:44:56;99470.75;;;27.36;50.94
51321;BME280;38732;49.556;6.286;2022-08-19T08:47:30;99473.47;;;27.47;50.23
51321;BME280;38732;49.556;6.286;2022-08-19T08:50:07;99476.97;;;27.61;49.56
51321;BME280;38732;49.556;6.286;2022-08-19T08:52:45;99459.75;;;27.79;49.96
51321;BME280;38732;49.556;6.286;2022-08-19T08:55:19;99459.66;;;27.93;48.77
51321;BME280;38732;49.556;6.286;2022-08-19T09:00:29;99453.84;;;28.36;49.12
51321;BME280;38732;49.556;6.286;2022-08-19T09:02:59;99463.28;;;28.65;47.00
51321;BME280;38732;49.556;6.286;2022-08-19T09:05:53;99455.13;;;28.90;45.44
51321;BME280;38732;49.556;6.286;2022-08-19T09:08:40;99453.13;;;29.05;45.08
51321;BME280;38732;49.556;6.286;2022-08-19T09:12:03;99444.22;;;29.06;45.62
51321;BME280;38732;49.556;6.286;2022-08-19T09:14:32;99446.81;;;28.48;45.21
51321;BME280;38732;49.556;6.286;2022-08-19T09:17:02;99447.59;;;28.73;46.16
51321;BME280;38732;49.556;6.286;2022-08-19T09:19:30;99445.44;;;29.13;45.02
51321;BME280;38732;49.556;6.286;2022-08-19T09:21:59;99450.50;;;29.28;43.65
51321;BME280;38732;49.556;6.286;2022-08-19T09:24:27;99439.88;;;29.50;44.22
51321;BME280;38732;49.556;6.286;2022-08-19T09:26:55;99439.44;;;28.87;42.98
51321;BME280;38732;49.556;6.286;2022-08-19T09:29:23;99441.00;;;29.70;41.22
51321;BME280;38732;49.556;6.286;2022-08-19T09:31:52;99438.56;;;29.56;40.79
51321;BME280;38732;49.556;6.286;2022-08-19T09:34:20;99435.56;;;29.72;40.19
51321;BME280;38732;49.556;6.286;2022-08-19T09:36:49;99438.19;;;29.94;39.88
51321;BME280;38732;49.556;6.286;2022-08-19T09:39:17;99429.19;;;30.06;38.62
51321;BME280;38732;49.556;6.286;2022-08-19T09:41:45;99422.00;;;29.30;40.58
51321;BME280;38732;49.556;6.286;2022-08-19T09:44:14;99417.91;;;29.48;41.03
51321;BME280;38732;49.556;6.286;2022-08-19T09:46:42;99422.09;;;30.60;40.71
51321;BME280;38732;49.556;6.286;2022-08-19T09:49:10;99420.59;;;30.67;37.16
51321;BME280;38732;49.556;6.286;2022-08-19T09:51:39;99424.44;;;30.86;37.56
51321;BME280;38732;49.556;6.286;2022-08-19T09:54:07;99425.44;;;30.73;38.69
51321;BME280;38732;49.556;6.286;2022-08-19T09:56:35;99427.94;;;30.33;37.80
51321;BME280;38732;49.556;6.286;2022-08-19T09:59:03;99429.44;;;30.47;39.00
51321;BME280;38732;49.556;6.286;2022-08-19T10:01:32;99434.56;;;29.16;40.78
51321;BME280;38732;49.556;6.286;2022-08-19T10:04:01;99438.31;;;29.25;41.43
51321;BME280;38732;49.556;6.286;2022-08-19T10:06:29;99442.16;;;29.10;40.25
51321;BME280;38732;49.556;6.286;2022-08-19T10:08:58;99428.44;;;30.16;38.89
51321;BME280;38732;49.556;6.286;2022-08-19T10:11:26;99419.94;;;30.22;38.05
51321;BME280;38732;49.556;6.286;2022-08-19T10:13:55;99419.88;;;30.44;36.93
51321;BME280;38732;49.556;6.286;2022-08-19T10:16:23;99424.94;;;31.01;36.09
51321;BME280;38732;49.556;6.286;2022-08-19T10:18:53;99431.84;;;30.50;36.32
51321;BME280;38732;49.556;6.286;2022-08-19T10:21:32;99427.22;;;30.52;36.48
51321;BME280;38732;49.556;6.286;2022-08-19T10:24:04;99434.69;;;30.90;35.75
51321;BME280;38732;49.556;6.286;2022-08-19T10:26:35;99433.25;;;29.56;38.40
51321;BME280;38732;49.556;6.286;2022-08-19T10:29:04;99435.88;;;30.01;37.06
51321;BME280;38732;49.556;6.286;2022-08-19T10:31:33;99426.03;;;30.45;36.72
51321;BME280;38732;49.556;6.286;2022-08-19T10:34:02;99422.59;;;30.33;38.22
51321;BME280;38732;49.556;6.286;2022-08-19T10:36:33;99419.59;;;31.01;39.16
51321;BME280;38732;49.556;6.286;2022-08-19T10:39:06;99419.56;;;30.80;37.76
51321;BME280;38732;49.556;6.286;2022-08-19T10:41:37;99428.75;;;30.66;36.66
51321;BME280;38732;49.556;6.286;2022-08-19T10:44:09;99425.38;;;30.31;36.79
51321;BME280;38732;49.556;6.286;2022-08-19T10:46:41;99421.06;;;30.72;36.02
51321;BME280;38732;49.556;6.286;2022-08-19T10:49:10;99425.34;;;31.48;35.28
51321;BME280;38732;49.556;6.286;2022-08-19T10:51:39;99424.69;;;31.75;35.23
51321;BME280;38732;49.556;6.286;2022-08-19T10:54:07;99418.06;;;32.39;33.87
51321;BME280;38732;49.556;6.286;2022-08-19T10:56:36;99417.34;;;31.98;33.13
51321;BME280;38732;49.556;6.286;2022-08-19T10:59:04;99422.44;;;32.69;33.22
51321;BME280;38732;49.556;6.286;2022-08-19T11:01:33;99417.56;;;33.12;32.02
51321;BME280;38732;49.556;6.286;2022-08-19T11:04:04;99420.31;;;33.29;32.50
51321;BME280;38732;49.556;6.286;2022-08-19T11:06:32;99416.13;;;34.46;29.69
51321;BME280;38732;49.556;6.286;2022-08-19T11:09:01;99419.44;;;33.76;31.57
51321;BME280;38732;49.556;6.286;2022-08-19T11:11:29;99422.28;;;34.38;30.31
51321;BME280;38732;49.556;6.286;2022-08-19T11:13:57;99425.88;;;34.11;29.06
51321;BME280;38732;49.556;6.286;2022-08-19T11:16:26;99426.06;;;33.72;28.96
51321;BME280;38732;49.556;6.286;2022-08-19T11:18:57;99417.78;;;33.93;30.24
51321;BME280;38732;49.556;6.286;2022-08-19T11:21:31;99422.91;;;34.04;29.26
51321;BME280;38732;49.556;6.286;2022-08-19T11:24:09;99420.16;;;35.38;28.43
51321;BME280;38732;49.556;6.286;2022-08-19T11:26:40;99434.28;;;35.14;29.09
51321;BME280;38732;49.556;6.286;2022-08-19T11:29:11;99416.09;;;34.82;29.74
51321;BME280;38732;49.556;6.286;2022-08-19T11:31:41;99416.16;;;34.28;29.38
51321;BME280;38732;49.556;6.286;2022-08-19T11:34:14;99412.91;;;34.78;30.43
51321;BME280;38732;49.556;6.286;2022-08-19T11:36:44;99422.28;;;35.60;27.99
51321;BME280;38732;49.556;6.286;2022-08-19T11:39:15;99423.66;;;36.89;25.67
51321;BME280;38732;49.556;6.286;2022-08-19T11:41:44;99414.44;;;36.59;24.08
51321;BME280;38732;49.556;6.286;2022-08-19T11:44:13;99417.94;;;36.84;25.53
51321;BME280;38732;49.556;6.286;2022-08-19T11:46:43;99416.75;;;36.95;24.52
51321;BME280;38732;49.556;6.286;2022-08-19T11:49:14;99412.06;;;37.84;23.24
51321;BME280;38732;49.556;6.286;2022-08-19T11:51:42;99414.50;;;38.02;22.80
51321;BME280;38732;49.556;6.286;2022-08-19T11:54:12;99402.50;;;38.73;22.12
51321;BME280;38732;49.556;6.286;2022-08-19T11:56:41;99420.38;;;38.89;20.99
51321;BME280;38732;49.556;6.286;2022-08-19T11:59:10;99412.34;;;38.66;21.13
51321;BME280;38732;49.556;6.286;2022-08-19T12:01:38;99413.91;;;38.98;21.25
51321;BME280;38732;49.556;6.286;2022-08-19T12:04:06;99417.16;;;40.19;20.35
51321;BME280;38732;49.556;6.286;2022-08-19T12:06:37;99407.78;;;40.65;19.33
51321;BME280;38732;49.556;6.286;2022-08-19T12:09:08;99410.69;;;41.54;18.43
51321;BME280;38732;49.556;6.286;2022-08-19T12:11:38;99410.69;;;41.61;17.96
51321;BME280;38732;49.556;6.286;2022-08-19T12:14:10;99399.66;;;41.63;17.74
51321;BME280;38732;49.556;6.286;2022-08-19T12:16:39;99402.22;;;41.91;18.48
51321;BME280;38732;49.556;6.286;2022-08-19T12:19:08;99398.81;;;42.50;17.58
51321;BME280;38732;49.556;6.286;2022-08-19T12:21:38;99408.19;;;42.74;17.31
51321;BME280;38732;49.556;6.286;2022-08-19T12:24:07;99410.19;;;43.39;17.11
51321;BME280;38732;49.556;6.286;2022-08-19T12:26:35;99409.47;;;43.57;16.78
51321;BME280;38732;49.556;6.286;2022-08-19T12:29:03;99419.06;;;44.43;14.14
51321;BME280;38732;49.556;6.286;2022-08-19T12:31:32;99403.22;;;43.94;12.70
51321;BME280;38732;49.556;6.286;2022-08-19T12:34:00;99414.47;;;44.36;14.74
51321;BME280;38732;49.556;6.286;2022-08-19T12:36:28;99408.59;;;44.40;15.70
51321;BME280;38732;49.556;6.286;2022-08-19T12:38:58;99412.16;;;44.90;12.95
51321;BME280;38732;49.556;6.286;2022-08-19T12:41:27;99402.44;;;45.19;13.47
51321;BME280;38732;49.556;6.286;2022-08-19T12:43:55;99401.53;;;44.82;13.97
51321;BME280;38732;49.556;6.286;2022-08-19T12:46:23;99395.44;;;44.62;13.49
51321;BME280;38732;49.556;6.286;2022-08-19T12:48:51;99405.50;;;44.86;14.58
51321;BME280;38732;49.556;6.286;2022-08-19T12:51:20;99409.66;;;45.81;13.73
51321;BME280;38732;49.556;6.286;2022-08-19T12:53:49;99396.66;;;45.28;14.20
51321;BME280;38732;49.556;6.286;2022-08-19T12:56:17;99401.56;;;44.75;16.48
51321;BME280;38732;49.556;6.286;2022-08-19T12:58:45;99391.25;;;45.88;15.65
51321;BME280;38732;49.556;6.286;2022-08-19T13:01:15;99393.53;;;45.42;15.28
51321;BME280;38732;49.556;6.286;2022-08-19T13:03:47;99402.25;;;46.00;16.16
51321;BME280;38732;49.556;6.286;2022-08-19T13:06:15;99401.78;;;45.54;14.72
51321;BME280;38732;49.556;6.286;2022-08-19T13:08:43;99390.66;;;44.57;15.29
51321;BME280;38732;49.556;6.286;2022-08-19T13:11:14;99393.38;;;45.37;15.46
51321;BME280;38732;49.556;6.286;2022-08-19T13:13:45;99399.50;;;45.70;15.45
51321;BME280;38732;49.556;6.286;2022-08-19T13:16:15;99389.50;;;45.08;15.57
51321;BME280;38732;49.556;6.286;2022-08-19T13:18:45;99388.19;;;44.74;16.38
51321;BME280;38732;49.556;6.286;2022-08-19T13:21:14;99387.91;;;46.28;16.11
51321;BME280;38732;49.556;6.286;2022-08-19T13:23:42;99390.03;;;45.54;16.52